Time;durP1;ratioP1;P1;durP2;ratioP2;P2;SDS_P1;SDS_P2;PMS_P1;PMS_P2;Temp;Humidity;BMP_temperature;BMP_pressure;BME280_temperature;BME280_humidity;BME280_pressure;Samples;Min_cycle;Max_cycle;Signal;HPM_P1;HPM_P2
2022/10/07 00:01:53;;;;;;;6.30;2.40;;;8.40;99.90;;;;;;5051695;28;20108;-54
2022/10/07 00:04:18;;;;;;;4.18;2.20;;;8.40;99.90;;;;;;5052391;28;20056;-55
2022/10/07 00:06:44;;;;;;;6.63;2.58;;;8.40;99.90;;;;;;5052432;28;20444;-53
2022/10/07 00:09:10;;;;;;;5.63;2.28;;;8.40;99.90;;;;;;5051734;28;20027;-50
2022/10/07 00:11:36;;;;;;;7.93;3.17;;;8.30;99.90;;;;;;5051731;28;20024;-49
2022/10/07 00:14:07;;;;;;;6.00;3.30;;;8.30;99.90;;;;;;5050329;28;20029;-53
2022/10/07 00:16:37;;;;;;;;;;;8.30;99.90;;;;;;5051193;28;20458;-51
2022/10/07 00:19:06;;;;;;;4.78;2.47;;;8.20;99.90;;;;;;5051415;28;19939;-52
2022/10/07 00:21:33;;;;;;;7.68;3.05;;;8.20;99.90;;;;;;5051873;28;20385;-55
2022/10/07 00:24:00;;;;;;;4.05;2.67;;;8.20;99.90;;;;;;5050913;28;20531;-53
2022/10/07 00:26:29;;;;;;;5.93;3.05;;;8.20;99.90;;;;;;5051307;28;20028;-53
2022/10/07 00:28:55;;;;;;;5.60;2.88;;;8.20;99.90;;;;;;5052812;28;20485;-51
2022/10/07 00:31:32;;;;;;;7.03;2.80;;;8.20;99.90;;;;;;5047240;28;20099;-56
2022/10/07 00:33:58;;;;;;;7.68;2.55;;;8.10;99.90;;;;;;5034465;28;20654;-55
2022/10/07 00:36:31;;;;;;;8.13;2.90;;;8.10;99.90;;;;;;5033010;28;20116;-55
2022/10/07 00:39:02;;;;;;;6.97;3.00;;;8.10;99.90;;;;;;5034794;28;20018;-55
2022/10/07 00:41:43;;;;;;;9.50;3.40;;;8.00;99.90;;;;;;5033340;28;20034;-49
2022/10/07 00:44:30;;;;;;;7.00;2.93;;;8.00;99.90;;;;;;5034630;28;20083;-58
2022/10/07 00:47:21;;;;;;;5.57;3.00;;;8.00;99.90;;;;;;5035424;28;20029;-51
2022/10/07 00:49:53;;;;;;;3.67;2.63;;;7.90;99.90;;;;;;5034746;28;20014;-52
2022/10/07 00:52:22;;;;;;;6.20;2.88;;;7.90;99.90;;;;;;5034992;28;20033;-53
2022/10/07 00:54:52;;;;;;;6.82;3.05;;;7.90;99.90;;;;;;5034691;28;20037;-55
2022/10/07 00:57:21;;;;;;;6.38;2.95;;;7.90;99.90;;;;;;5034047;28;20066;-63
2022/10/07 00:59:46;;;;;;;4.03;2.65;;;7.90;99.90;;;;;;5034496;28;20497;-56
2022/10/07 01:02:12;;;;;;;10.95;3.10;;;7.80;99.90;;;;;;5034540;28;20025;-54
2022/10/07 01:04:38;;;;;;;8.65;2.92;;;7.80;99.90;;;;;;5033775;28;20052;-55
2022/10/07 01:07:04;;;;;;;13.05;4.30;;;7.80;99.90;;;;;;5034728;28;20494;-55
2022/10/07 01:09:30;;;;;;;7.55;3.15;;;7.80;99.90;;;;;;5034519;28;20061;-56
2022/10/07 01:12:06;;;;;;;7.53;3.20;;;7.70;99.90;;;;;;5033885;28;20030;-54
2022/10/07 01:14:46;;;;;;;7.72;3.10;;;7.70;99.90;;;;;;5034409;28;20033;-52
2022/10/07 01:17:35;;;;;;;8.63;3.40;;;7.70;99.90;;;;;;5034254;28;20025;-56
2022/10/07 01:20:43;;;;;;;8.63;3.00;;;7.70;99.90;;;;;;5033813;28;20498;-61
2022/10/07 01:23:15;;;;;;;9.65;3.30;;;7.70;99.90;;;;;;5034436;28;20021;-56
2022/10/07 01:25:40;;;;;;;;;;;7.60;99.90;;;;;;5034212;28;20390;-58
2022/10/07 01:28:17;;;;;;;5.93;3.25;;;7.60;99.90;;;;;;5034371;28;19905;-50
2022/10/07 01:30:47;;;;;;;4.72;2.90;;;7.60;99.90;;;;;;5033965;28;20026;-54
2022/10/07 01:33:19;;;;;;;8.63;3.00;;;7.60;99.90;;;;;;5033747;28;20026;-60
2022/10/07 01:35:49;;;;;;;9.32;3.33;;;7.60;99.90;;;;;;5034320;28;20032;-63
2022/10/07 01:38:18;;;;;;;7.07;3.40;;;7.60;99.90;;;;;;5034012;28;20037;-60
2022/10/07 01:40:53;;;;;;;7.95;3.40;;;7.50;99.90;;;;;;5032966;28;20040;-56
2022/10/07 01:43:21;;;;;;;9.23;4.07;;;7.50;99.90;;;;;;5033706;28;20022;-59
2022/10/07 01:45:47;;;;;;;8.55;4.97;;;7.50;99.90;;;;;;5034039;28;20025;-59
2022/10/07 01:48:14;;;;;;;10.88;4.07;;;7.50;99.90;;;;;;5033067;28;20029;-53
2022/10/07 01:50:40;;;;;;;9.02;3.55;;;7.50;99.90;;;;;;5034246;28;20060;-56
2022/10/07 01:53:48;;;;;;;6.75;3.85;;;7.50;99.90;;;;;;5038595;28;20033;-56
2022/10/07 01:56:16;;;;;;;8.30;4.28;;;7.50;99.90;;;;;;5027575;28;20038;-55
2022/10/07 01:59:17;;;;;;;10.10;4.15;;;7.50;99.90;;;;;;5038176;28;20023;-54
2022/10/07 02:02:16;;;;;;;10.68;4.88;;;7.40;99.90;;;;;;5052662;28;20025;-55
2022/10/07 02:05:19;;;;;;;9.85;5.55;;;7.50;99.90;;;;;;5053129;28;20458;-59
2022/10/07 02:07:54;;;;;;;11.63;6.22;;;7.40;99.90;;;;;;5043867;28;20041;-56
2022/10/07 02:10:53;;;;;;;12.77;6.30;;;7.40;99.90;;;;;;5053129;28;20029;-55
2022/10/07 02:13:54;;;;;;;13.15;5.68;;;7.40;99.90;;;;;;5027833;28;20154;-56
2022/10/07 02:16:46;;;;;;;12.15;6.93;;;7.40;99.90;;;;;;5039412;28;20044;-55
2022/10/07 02:19:24;;;;;;;20.23;11.07;;;7.40;99.90;;;;;;5052877;28;20084;-54
2022/10/07 02:21:53;;;;;;;23.10;12.15;;;7.40;99.90;;;;;;5052371;28;20104;-51
2022/10/07 02:24:22;;;;;;;24.20;13.60;;;7.50;99.90;;;;;;5053161;28;20465;-52
2022/10/07 02:26:50;;;;;;;24.90;15.00;;;7.50;99.90;;;;;;5052778;28;20016;-54
2022/10/07 02:29:19;;;;;;;24.10;14.93;;;7.50;99.90;;;;;;5052072;28;20021;-53
2022/10/07 02:31:47;;;;;;;26.55;15.52;;;7.60;99.90;;;;;;5053006;28;20028;-56
2022/10/07 02:34:16;;;;;;;21.85;12.18;;;7.60;99.90;;;;;;5053085;28;20159;-49
2022/10/07 02:36:48;;;;;;;16.38;9.00;;;7.60;99.90;;;;;;5052109;28;20048;-53
2022/10/07 02:39:14;;;;;;;16.45;9.32;;;7.60;99.90;;;;;;5052625;28;20025;-55
2022/10/07 02:41:52;;;;;;;11.00;7.72;;;7.60;99.90;;;;;;5052670;28;20361;-58
2022/10/07 02:44:27;;;;;;;13.40;6.40;;;7.60;99.90;;;;;;5052087;28;20100;-56
2022/10/07 02:47:05;;;;;;;14.57;5.40;;;7.60;99.90;;;;;;5052767;28;20040;-54
2022/10/07 02:49:36;;;;;;;11.23;4.22;;;7.70;99.90;;;;;;5051651;28;20474;-53
2022/10/07 02:52:06;;;;;;;6.97;3.80;;;7.70;99.90;;;;;;5051987;28;20512;-54
2022/10/07 02:54:42;;;;;;;11.30;4.90;;;7.60;99.90;;;;;;5052615;28;20028;-55
2022/10/07 02:57:12;;;;;;;9.02;4.78;;;7.60;99.90;;;;;;5052182;28;20478;-53
2022/10/07 02:59:39;;;;;;;10.15;4.05;;;7.60;99.90;;;;;;5052442;28;20512;-53
2022/10/07 03:02:09;;;;;;;10.35;4.15;;;7.70;99.90;;;;;;5052233;28;20115;-54
2022/10/07 03:04:36;;;;;;;14.73;3.97;;;7.60;99.90;;;;;;5051962;28;20342;-57
2022/10/07 03:07:01;;;;;;;7.13;3.63;;;7.60;99.90;;;;;;5052457;28;20021;-55
2022/10/07 03:09:28;;;;;;;9.23;3.60;;;7.60;99.90;;;;;;5052235;28;20391;-57
2022/10/07 03:11:54;;;;;;;11.38;3.75;;;7.60;99.90;;;;;;5051623;28;20234;-55
2022/10/07 03:14:19;;;;;;;12.48;3.88;;;7.70;99.90;;;;;;5052059;28;20079;-50
2022/10/07 03:16:45;;;;;;;7.75;3.85;;;7.70;99.90;;;;;;5052346;28;20009;-50
2022/10/07 03:19:10;;;;;;;9.45;3.58;;;7.70;99.90;;;;;;5051323;28;20053;-52
2022/10/07 03:21:36;;;;;;;8.80;4.00;;;7.70;99.90;;;;;;5052040;28;20021;-58
2022/10/07 03:24:03;;;;;;;6.97;3.50;;;7.70;99.90;;;;;;5050563;28;20116;-55
2022/10/07 03:26:34;;;;;;;11.93;3.90;;;7.70;99.90;;;;;;5051043;28;20017;-55
2022/10/07 03:29:00;;;;;;;14.38;5.05;;;7.70;99.90;;;;;;5052060;28;20029;-57
2022/10/07 03:31:26;;;;;;;8.70;4.10;;;7.70;99.90;;;;;;5052129;28;20063;-57
2022/10/07 03:33:55;;;;;;;15.68;4.65;;;7.70;99.90;;;;;;5051648;28;20040;-54
2022/10/07 03:36:22;;;;;;;16.98;6.05;;;7.70;99.90;;;;;;5051983;28;20536;-65
2022/10/07 03:38:48;;;;;;;14.07;6.90;;;7.80;99.90;;;;;;5051156;28;20056;-64
2022/10/07 03:41:15;;;;;;;9.90;6.22;;;7.80;99.90;;;;;;5052234;28;20025;-66
2022/10/07 03:43:40;;;;;;;10.68;4.72;;;7.80;99.90;;;;;;5051928;28;20339;-60
2022/10/07 03:46:06;;;;;;;10.05;5.18;;;7.80;99.90;;;;;;5051557;28;20059;-67
2022/10/07 03:48:32;;;;;;;10.10;4.57;;;7.80;99.90;;;;;;5052274;28;20021;-71
2022/10/07 03:50:57;;;;;;;12.43;5.57;;;7.70;99.90;;;;;;5051998;28;20025;-73
2022/10/07 03:53:25;;;;;;;11.18;4.97;;;7.70;99.90;;;;;;5051503;28;20378;-70
2022/10/07 03:55:51;;;;;;;11.25;5.03;;;7.70;99.90;;;;;;5052318;28;20182;-72
2022/10/07 03:58:16;;;;;;;18.38;7.18;;;7.70;99.90;;;;;;5051768;28;20485;-64
2022/10/07 04:00:42;;;;;;;12.23;5.80;;;7.70;99.90;;;;;;5054126;28;20087;-58
2022/10/07 04:03:08;;;;;;;13.85;5.05;;;7.80;99.90;;;;;;5067066;28;20025;-66
2022/10/07 04:05:35;;;;;;;13.20;5.47;;;7.70;99.90;;;;;;5057916;28;20075;-70
2022/10/07 04:08:03;;;;;;;12.32;5.43;;;7.70;99.90;;;;;;5069039;28;20078;-69
2022/10/07 04:10:29;;;;;;;9.50;4.53;;;7.70;99.90;;;;;;5075492;28;20029;-64
2022/10/07 04:12:54;;;;;;;9.20;4.20;;;7.80;99.90;;;;;;5075570;28;20350;-68
2022/10/07 04:15:20;;;;;;;8.77;4.25;;;7.80;99.90;;;;;;5074644;28;20381;-66
2022/10/07 04:17:47;;;;;;;10.75;4.68;;;7.70;99.90;;;;;;5075037;28;20044;-63
2022/10/07 04:20:14;;;;;;;15.10;5.05;;;7.70;99.90;;;;;;5074972;28;20081;-53
2022/10/07 04:22:40;;;;;;;11.43;5.28;;;7.70;99.90;;;;;;5074933;28;20506;-64
2022/10/07 04:27:53;;;;;;;6.90;4.07;;;7.70;99.90;;;;;;5075541;28;20089;-60
2022/10/07 04:30:20;;;;;;;13.52;7.63;;;7.70;99.90;;;;;;5073484;28;20021;-72
2022/10/07 04:32:46;;;;;;;9.50;5.43;;;7.70;99.90;;;;;;5075241;28;20457;-61
2022/10/07 04:35:11;;;;;;;11.73;5.47;;;7.80;99.90;;;;;;5074563;28;20032;-50
2022/10/07 04:37:37;;;;;;;13.57;6.07;;;7.70;99.90;;;;;;5075104;28;20093;-58
2022/10/07 04:40:03;;;;;;;13.27;6.10;;;7.70;99.90;;;;;;5075337;28;20028;-60
2022/10/07 04:45:12;;;;;;;15.38;6.18;;;7.70;99.90;;;;;;5074828;28;20024;-56
2022/10/07 04:47:38;;;;;;;11.35;5.43;;;7.70;99.90;;;;;;5074892;28;20024;-49
2022/10/07 04:50:04;;;;;;;8.50;5.45;;;7.70;99.90;;;;;;5054761;28;20482;-55
2022/10/07 04:52:30;;;;;;;13.23;6.07;;;7.70;99.90;;;;;;5052837;28;20453;-55
2022/10/07 04:54:56;;;;;;;10.38;5.03;;;7.70;99.90;;;;;;5052633;28;20413;-68
2022/10/07 04:57:22;;;;;;;10.18;5.72;;;7.70;99.90;;;;;;5052507;28;20366;-60
2022/10/07 04:59:47;;;;;;;11.48;5.97;;;7.70;99.90;;;;;;5053234;28;20021;-57
2022/10/07 05:02:13;;;;;;;13.82;7.38;;;7.70;99.90;;;;;;5054232;28;20393;-54
2022/10/07 05:04:38;;;;;;;10.93;6.35;;;7.70;99.90;;;;;;5053617;28;20033;-52
2022/10/07 05:07:04;;;;;;;14.32;7.25;;;7.70;99.90;;;;;;5054699;28;20037;-54
2022/10/07 05:09:29;;;;;;;14.82;7.03;;;7.70;99.90;;;;;;5054292;28;20058;-54
2022/10/07 05:11:55;;;;;;;18.95;8.50;;;7.70;99.90;;;;;;5053754;28;20465;-58
2022/10/07 05:14:21;;;;;;;11.48;7.22;;;7.70;99.90;;;;;;5053441;28;20040;-53
2022/10/07 05:16:50;;;;;;;14.90;8.13;;;7.70;99.90;;;;;;5054278;28;20035;-54
2022/10/07 05:19:16;;;;;;;15.35;6.75;;;7.70;99.90;;;;;;5053431;28;20049;-53
2022/10/07 05:21:42;;;;;;;16.70;10.23;;;7.70;99.90;;;;;;5054017;28;20426;-54
2022/10/07 05:24:08;;;;;;;18.05;8.30;;;7.70;99.90;;;;;;5054175;28;20067;-53
2022/10/07 05:26:34;;;;;;;14.18;8.80;;;7.70;99.90;;;;;;5053719;28;20113;-52
2022/10/07 05:28:59;;;;;;;18.98;11.15;;;7.70;99.90;;;;;;5054078;28;20095;-55
2022/10/07 05:31:26;;;;;;;19.10;11.63;;;7.70;99.90;;;;;;5053579;28;20044;-51
2022/10/07 05:33:52;;;;;;;20.00;9.77;;;7.70;99.90;;;;;;5053942;28;20030;-55
2022/10/07 05:36:21;;;;;;;17.15;9.77;;;7.60;99.90;;;;;;5054088;28;20584;-53
2022/10/07 05:38:47;;;;;;;16.83;9.30;;;7.60;99.90;;;;;;5053169;28;20024;-58
2022/10/07 05:41:13;;;;;;;17.65;9.48;;;7.60;99.90;;;;;;5054299;28;20021;-56
2022/10/07 05:43:45;;;;;;;19.05;10.50;;;7.60;99.90;;;;;;5054103;28;20488;-56
2022/10/07 05:46:12;;;;;;;21.33;11.07;;;7.60;99.90;;;;;;5053233;28;20381;-55
2022/10/07 05:48:39;;;;;;;19.10;11.10;;;7.60;99.90;;;;;;5053528;28;20024;-60
2022/10/07 05:51:09;;;;;;;18.00;10.63;;;7.60;99.90;;;;;;5053525;28;20435;-55
2022/10/07 05:53:34;;;;;;;25.40;10.23;;;7.60;99.90;;;;;;5053369;28;20025;-54
2022/10/07 05:56:12;;;;;;;21.25;10.98;;;7.60;99.90;;;;;;5053877;28;20461;-51
2022/10/07 05:58:37;;;;;;;17.15;10.25;;;7.60;99.90;;;;;;5053895;28;20474;-62
2022/10/07 06:01:05;;;;;;;15.23;8.07;;;7.60;99.90;;;;;;5053193;28;20032;-50
2022/10/07 06:03:32;;;;;;;17.25;10.60;;;7.60;99.90;;;;;;5053541;28;20025;-49
2022/10/07 06:05:59;;;;;;;18.10;9.45;;;7.60;99.90;;;;;;5053359;28;20071;-66
2022/10/07 06:08:25;;;;;;;12.80;8.38;;;7.60;99.90;;;;;;5056085;28;20047;-56
2022/10/07 06:13:36;;;;;;;14.57;9.30;;;7.60;99.90;;;;;;5052720;28;20075;-58
2022/10/07 06:16:08;;;;;;;16.92;9.57;;;7.60;99.90;;;;;;5053244;28;20111;-61
2022/10/07 06:18:37;;;;;;;19.25;10.50;;;7.70;99.90;;;;;;5052905;28;20133;-56
2022/10/07 06:21:03;;;;;;;19.52;10.63;;;7.70;99.90;;;;;;5051737;28;20133;-53
2022/10/07 06:23:29;;;;;;;18.75;10.85;;;7.70;99.90;;;;;;5053122;28;20032;-53
2022/10/07 06:25:57;;;;;;;19.23;12.43;;;7.70;99.90;;;;;;5051926;28;20083;-56
2022/10/07 06:28:23;;;;;;;20.45;10.23;;;7.80;99.90;;;;;;5050689;28;20481;-55
2022/10/07 06:30:49;;;;;;;23.55;11.05;;;7.80;99.90;;;;;;5052748;28;20017;-56
2022/10/07 06:33:18;;;;;;;19.45;9.23;;;7.80;99.90;;;;;;5053143;28;20412;-60
2022/10/07 06:35:45;;;;;;;11.98;6.65;;;7.80;99.90;;;;;;5050845;28;20474;-55
2022/10/07 06:38:11;;;;;;;11.98;6.78;;;7.90;99.90;;;;;;5053181;28;20100;-58
2022/10/07 06:40:37;;;;;;;14.60;7.75;;;7.90;99.90;;;;;;5052733;28;20025;-56
2022/10/07 06:43:03;;;;;;;18.88;8.63;;;8.00;99.90;;;;;;5052044;28;20366;-58
2022/10/07 06:45:30;;;;;;;20.90;11.30;;;8.00;99.90;;;;;;5052354;28;20025;-57
2022/10/07 06:47:56;;;;;;;24.85;14.60;;;8.10;99.90;;;;;;5052627;28;20402;-58
2022/10/07 06:50:22;;;;;;;19.05;12.05;;;8.10;99.90;;;;;;5051599;28;20086;-58
2022/10/07 06:52:47;;;;;;;18.60;10.80;;;8.20;99.90;;;;;;5052955;28;20017;-58
2022/10/07 06:55:13;;;;;;;20.08;11.43;;;8.20;99.90;;;;;;5052695;28;20039;-52
2022/10/07 06:57:40;;;;;;;17.00;10.95;;;8.30;99.90;;;;;;5051707;28;20074;-55
2022/10/07 07:00:06;;;;;;;15.35;9.43;;;8.30;99.90;;;;;;5052647;28;20122;-55
2022/10/07 07:02:32;;;;;;;12.52;7.50;;;8.40;99.90;;;;;;5052436;28;20056;-56
2022/10/07 07:04:58;;;;;;;12.05;6.35;;;8.40;99.90;;;;;;5051819;28;20052;-56
2022/10/07 07:07:23;;;;;;;8.10;5.68;;;8.50;99.90;;;;;;5052214;28;20051;-57
2022/10/07 07:09:50;;;;;;;11.05;5.40;;;8.50;99.90;;;;;;5051799;28;20028;-54
2022/10/07 07:12:15;;;;;;;13.35;7.50;;;8.60;99.90;;;;;;5052315;28;20106;-53
2022/10/07 07:14:43;;;;;;;23.95;6.22;;;8.70;99.90;;;;;;5052128;28;20481;-54
2022/10/07 07:17:10;;;;;;;13.70;5.68;;;8.70;99.90;;;;;;5033623;28;20028;-55
2022/10/07 07:19:35;;;;;;;12.38;5.70;;;8.70;99.90;;;;;;5051798;28;20048;-54
2022/10/07 07:22:01;;;;;;;16.83;8.60;;;8.80;99.90;;;;;;5034363;28;20370;-57
2022/10/07 07:24:27;;;;;;;17.13;8.48;;;8.80;99.90;;;;;;5051657;28;20063;-54
2022/10/07 07:26:52;;;;;;;19.75;10.70;;;8.90;99.90;;;;;;5052152;28;20120;-55
2022/10/07 07:29:18;;;;;;;15.35;9.82;;;9.00;99.90;;;;;;5052110;28;20041;-56
2022/10/07 07:31:44;;;;;;;21.20;11.48;;;9.10;99.90;;;;;;5051059;28;20454;-56
2022/10/07 07:34:12;;;;;;;15.80;9.98;;;9.10;99.90;;;;;;5052080;28;20071;-56
2022/10/07 07:36:42;;;;;;;14.98;9.55;;;9.20;99.90;;;;;;5051775;28;20025;-56
2022/10/07 07:39:10;;;;;;;17.77;9.57;;;9.30;99.90;;;;;;5051742;28;20139;-55
2022/10/07 07:41:40;;;;;;;14.93;8.10;;;9.40;99.90;;;;;;5052113;28;20059;-61
2022/10/07 07:44:08;;;;;;;19.67;10.07;;;9.40;99.90;;;;;;5051775;28;20028;-58
2022/10/07 07:46:38;;;;;;;14.98;6.88;;;9.50;99.90;;;;;;5050993;28;20032;-61
2022/10/07 07:49:05;;;;;;;19.77;9.90;;;9.60;99.90;;;;;;5051522;28;20025;-53
2022/10/07 07:51:32;;;;;;;20.55;10.75;;;9.70;99.90;;;;;;5051813;28;20123;-57
2022/10/07 07:53:58;;;;;;;20.42;12.32;;;9.70;99.90;;;;;;5051442;28;20063;-53
2022/10/07 07:56:25;;;;;;;19.10;9.88;;;9.80;99.90;;;;;;5051983;28;20024;-60
2022/10/07 07:58:50;;;;;;;24.20;10.07;;;9.90;99.90;;;;;;5051756;28;20025;-60
2022/10/07 08:01:17;;;;;;;13.50;8.35;;;10.00;99.90;;;;;;5050837;28;20083;-71
2022/10/07 08:03:45;;;;;;;13.45;8.73;;;10.10;99.90;;;;;;5052006;28;20100;-55
2022/10/07 08:06:13;;;;;;;18.17;7.97;;;10.20;99.90;;;;;;5051356;28;20033;-61
2022/10/07 08:08:44;;;;;;;15.30;8.85;;;10.20;99.90;;;;;;5052006;28;20021;-69
2022/10/07 08:11:16;;;;;;;19.27;8.27;;;10.30;99.90;;;;;;5051987;28;20025;-61
2022/10/07 08:13:42;;;;;;;24.27;7.20;;;10.30;99.90;;;;;;5051003;28;20562;-64
2022/10/07 08:16:13;;;;;;;21.90;6.75;;;10.40;99.90;;;;;;5053024;28;20470;-57
2022/10/07 08:18:44;;;;;;;13.85;5.07;;;10.50;99.90;;;;;;5053217;28;20494;-59
2022/10/07 08:21:11;;;;;;;12.50;5.68;;;10.60;99.90;;;;;;5051313;28;20022;-56
2022/10/07 08:23:40;;;;;;;12.68;6.00;;;10.60;99.90;;;;;;5051612;28;20063;-68
2022/10/07 08:26:07;;;;;;;16.65;6.30;;;10.70;99.90;;;;;;5051430;28;20478;-55
2022/10/07 08:28:33;;;;;;;19.75;7.65;;;10.80;99.90;;;;;;5050507;28;20357;-54
2022/10/07 08:31:18;;;;;;;11.85;6.30;;;10.80;99.90;;;;;;5050187;28;20029;-56
2022/10/07 08:33:46;;;;;;;17.17;7.75;;;11.00;99.90;;;;;;5051808;28;20037;-53
2022/10/07 08:36:17;;;;;;;12.88;5.97;;;11.10;99.90;;;;;;5051017;28;20021;-57
2022/10/07 08:38:43;;;;;;;12.93;5.93;;;11.10;99.90;;;;;;5050999;28;20043;-65
2022/10/07 08:41:09;;;;;;;16.27;6.18;;;11.20;99.90;;;;;;5041570;28;20032;-55
2022/10/07 08:43:48;;;;;;;10.85;6.05;;;11.30;99.90;;;;;;5046588;28;20033;-60
2022/10/07 08:46:18;;;;;;;17.98;8.25;;;11.40;99.90;;;;;;5050641;28;20028;-53
2022/10/07 08:48:54;;;;;;;12.52;6.22;;;11.50;99.90;;;;;;5050233;28;20029;-55
2022/10/07 08:51:23;;;;;;;9.80;5.57;;;11.60;99.90;;;;;;5052574;28;20037;-64
2022/10/07 08:53:53;;;;;;;11.73;4.88;;;11.80;99.90;;;;;;5053784;28;20090;-60
2022/10/07 08:56:22;;;;;;;13.07;6.25;;;11.90;99.90;;;;;;5053060;28;20434;-60
2022/10/07 08:59:00;;;;;;;18.35;6.93;;;12.10;99.90;;;;;;5054281;28;20021;-64
2022/10/07 09:01:58;;;;;;;15.30;6.50;;;12.20;99.90;;;;;;5053167;28;20501;-60
2022/10/07 09:04:36;;;;;;;10.80;5.03;;;12.30;99.90;;;;;;5049917;28;20498;-55
2022/10/07 09:07:12;;;;;;;7.22;4.18;;;12.30;99.90;;;;;;5052948;28;20028;-65
2022/10/07 09:10:04;;;;;;;10.25;3.90;;;12.40;99.90;;;;;;5052673;28;20021;-60
2022/10/07 09:12:37;;;;;;;12.20;3.33;;;12.50;99.90;;;;;;5042146;28;20132;-65
2022/10/07 09:15:05;;;;;;;6.75;2.88;;;12.60;99.90;;;;;;5053892;28;20485;-57
2022/10/07 09:17:36;;;;;;;8.95;3.40;;;12.70;99.90;;;;;;5051919;28;20330;-55
2022/10/07 09:20:15;;;;;;;7.20;3.10;;;12.80;99.90;;;;;;5053128;28;20045;-71
2022/10/07 09:22:45;;;;;;;7.60;3.38;;;12.90;99.90;;;;;;5053002;28;20104;-58
2022/10/07 09:25:10;;;;;;;12.95;2.63;;;13.00;99.90;;;;;;5053438;28;20035;-53
2022/10/07 09:27:36;;;;;;;8.00;3.03;;;13.10;99.90;;;;;;5052892;28;20025;-53
2022/10/07 09:30:03;;;;;;;11.35;2.65;;;13.20;99.90;;;;;;5051608;28;20373;-54
2022/10/07 09:32:28;;;;;;;9.70;3.25;;;13.30;99.90;;;;;;5052208;28;20032;-61
2022/10/07 09:34:54;;;;;;;9.50;2.33;;;13.40;99.90;;;;;;5053310;28;20033;-64
2022/10/07 09:37:23;;;;;;;6.55;2.00;;;13.50;99.90;;;;;;5053042;28;20374;-57
2022/10/07 09:39:51;;;;;;;5.75;2.22;;;13.60;99.80;;;;;;5051221;28;20528;-61
2022/10/07 09:42:28;;;;;;;4.95;2.00;;;13.60;99.70;;;;;;5052406;28;20025;-64
2022/10/07 09:44:57;;;;;;;7.35;2.20;;;13.70;99.50;;;;;;5051757;28;20077;-55
2022/10/07 09:47:26;;;;;;;9.63;2.40;;;13.80;99.10;;;;;;5052958;28;20025;-58
2022/10/07 09:49:58;;;;;;;5.15;1.60;;;13.90;98.80;;;;;;5052737;28;20021;-62
2022/10/07 09:52:26;;;;;;;3.63;1.85;;;14.10;98.60;;;;;;5051376;28;20056;-57
2022/10/07 09:54:54;;;;;;;10.20;2.53;;;14.40;98.20;;;;;;5052312;28;20044;-57
2022/10/07 09:57:29;;;;;;;12.05;2.05;;;14.60;97.10;;;;;;5052026;28;20021;-55
2022/10/07 10:00:12;;;;;;;10.45;2.75;;;14.90;96.70;;;;;;5051414;28;20477;-59
2022/10/07 10:02:53;;;;;;;8.98;2.25;;;15.10;96.10;;;;;;5052149;28;20021;-62
2022/10/07 10:05:28;;;;;;;4.32;1.85;;;15.20;95.70;;;;;;5052617;28;20381;-65
2022/10/07 10:07:58;;;;;;;6.30;1.80;;;15.30;95.60;;;;;;5052376;28;20060;-68
2022/10/07 10:10:32;;;;;;;9.23;2.00;;;15.40;95.40;;;;;;5052236;28;20471;-61
2022/10/07 10:13:00;;;;;;;9.88;1.85;;;15.50;94.70;;;;;;5049756;28;20025;-65
2022/10/07 10:15:28;;;;;;;12.45;3.95;;;15.70;94.50;;;;;;5052332;28;20485;-57
2022/10/07 10:17:55;;;;;;;7.53;1.95;;;15.70;94.20;;;;;;5051305;28;20094;-60
2022/10/07 10:20:30;;;;;;;10.00;2.10;;;15.90;93.80;;;;;;5051359;28;20485;-54
2022/10/07 10:22:56;;;;;;;9.30;1.67;;;16.00;93.50;;;;;;5054915;28;20056;-54
2022/10/07 10:29:20;;;;;;;7.15;1.63;;;16.10;92.40;;;;;;5050873;28;20095;-56
2022/10/07 10:32:01;;;;;;;8.50;1.90;;;16.20;92.30;;;;;;5050856;28;20048;-60
2022/10/07 10:34:41;;;;;;;6.30;1.70;;;16.40;92.30;;;;;;5050644;28;20088;-57
2022/10/07 10:37:24;;;;;;;5.18;1.80;;;16.50;92.10;;;;;;5052096;28;20017;-56
2022/10/07 10:40:06;;;;;;;8.35;2.45;;;16.60;91.50;;;;;;5051761;28;20049;-56
2022/10/07 10:42:53;;;;;;;8.57;2.63;;;16.50;90.80;;;;;;5050844;28;20021;-62
2022/10/07 10:45:24;;;;;;;9.05;2.63;;;16.50;91.20;;;;;;5051222;28;20060;-58
2022/10/07 10:48:27;;;;;;;6.15;1.83;;;16.60;91.10;;;;;;5051081;28;20089;-53
2022/10/07 10:51:22;;;;;;;11.93;2.40;;;16.60;91.10;;;;;;5027792;28;20067;-54
2022/10/07 10:54:07;;;;;;;7.30;2.03;;;16.60;91.00;;;;;;5051736;28;20029;-61
2022/10/07 10:56:58;;;;;;;6.78;1.92;;;16.60;90.40;;;;;;5051254;28;20040;-71
2022/10/07 10:59:27;;;;;;;;;;;16.60;89.90;;;;;;5039582;28;20091;-62
2022/10/07 11:02:18;;;;;;;9.05;1.60;;;16.70;88.20;;;;;;5050810;28;19905;-54
2022/10/07 11:04:49;;;;;;;4.70;1.70;;;16.70;87.50;;;;;;5022464;28;20049;-58
2022/10/07 11:07:36;;;;;;;7.65;2.25;;;16.70;88.30;;;;;;5048677;28;20526;-54
2022/10/07 11:10:16;;;;;;;5.45;2.08;;;16.70;88.80;;;;;;5050564;28;20366;-63
2022/10/07 11:12:45;;;;;;;7.72;1.90;;;16.70;88.40;;;;;;5050546;28;20024;-63
2022/10/07 11:15:43;;;;;;;6.93;1.90;;;16.60;87.90;;;;;;5050398;28;20040;-56
2022/10/07 11:18:21;;;;;;;7.95;2.00;;;16.40;88.50;;;;;;5037257;28;20068;-59
2022/10/07 11:20:49;;;;;;;7.97;1.50;;;16.40;88.30;;;;;;5050705;28;20058;-53
2022/10/07 11:23:45;;;;;;;6.97;2.03;;;16.30;88.30;;;;;;5050455;28;20063;-59
2022/10/07 11:26:26;;;;;;;7.70;2.28;;;16.20;88.30;;;;;;5050636;28;20109;-61
2022/10/07 11:28:52;;;;;;;8.98;2.50;;;16.20;88.30;;;;;;5050622;28;20100;-60
2022/10/07 11:31:35;;;;;;;6.95;1.45;;;16.20;88.00;;;;;;5050552;28;20440;-57
2022/10/07 11:34:26;;;;;;;6.68;1.50;;;16.20;88.50;;;;;;5051511;28;20040;-61
2022/10/07 11:37:19;;;;;;;5.18;1.40;;;16.20;87.10;;;;;;5029912;28;20052;-63
2022/10/07 11:39:45;;;;;;;8.77;1.55;;;16.20;86.90;;;;;;5030876;28;20029;-57
2022/10/07 11:42:20;;;;;;;7.57;1.63;;;16.20;86.00;;;;;;5030336;28;20509;-55
2022/10/07 11:44:54;;;;;;;4.88;1.35;;;16.20;86.10;;;;;;5031092;28;20018;-56
2022/10/07 11:47:25;;;;;;;4.38;1.00;;;16.30;86.60;;;;;;5031292;28;20033;-52
2022/10/07 11:50:14;;;;;;;7.53;1.85;;;16.30;86.00;;;;;;5049891;28;20068;-55
2022/10/07 11:52:44;;;;;;;8.20;1.67;;;16.40;85.50;;;;;;5050879;28;20063;-56
2022/10/07 11:55:40;;;;;;;9.05;1.25;;;16.40;85.10;;;;;;5050383;28;20037;-55
2022/10/07 11:58:24;;;;;;;10.27;2.13;;;16.40;84.90;;;;;;5049728;28;20052;-56
2022/10/07 12:01:10;;;;;;;4.75;1.20;;;16.50;84.30;;;;;;5050263;28;20028;-57
2022/10/07 12:03:36;;;;;;;5.90;1.48;;;16.60;84.70;;;;;;5049212;28;20029;-60
2022/10/07 12:06:10;;;;;;;5.97;1.50;;;16.60;84.50;;;;;;5049488;28;20021;-57
2022/10/07 12:08:43;;;;;;;8.95;1.80;;;16.70;84.50;;;;;;5050696;28;20033;-50
2022/10/07 12:11:12;;;;;;;6.20;1.13;;;16.70;84.10;;;;;;5050174;28;20017;-58
2022/10/07 12:13:38;;;;;;;3.13;1.23;;;16.80;83.90;;;;;;5050753;28;20044;-53
2022/10/07 12:16:22;;;;;;;5.53;1.70;;;16.80;83.70;;;;;;5050862;28;20025;-62
2022/10/07 12:19:06;;;;;;;4.68;1.35;;;16.90;83.70;;;;;;5048988;28;20530;-52
2022/10/07 12:21:50;;;;;;;7.55;1.63;;;17.00;82.60;;;;;;5050681;28;20033;-56
2022/10/07 12:24:15;;;;;;;6.60;1.15;;;17.00;81.90;;;;;;5053478;28;20075;-53
2022/10/07 12:26:44;;;;;;;3.80;1.52;;;17.00;81.60;;;;;;5054109;28;20025;-65
2022/10/07 12:29:21;;;;;;;4.05;1.33;;;17.00;81.10;;;;;;5054538;28;20017;-57
2022/10/07 12:31:47;;;;;;;7.75;1.38;;;17.10;79.80;;;;;;5053960;28;20477;-67
2022/10/07 12:34:28;;;;;;;9.20;1.52;;;17.10;80.30;;;;;;5054767;28;20040;-56
2022/10/07 12:37:32;;;;;;;10.25;2.10;;;17.10;78.70;;;;;;5054689;28;20048;-67
2022/10/07 12:39:58;;;;;;;6.82;1.08;;;17.10;78.90;;;;;;5053932;28;20420;-60
2022/10/07 12:42:24;;;;;;;7.20;1.75;;;17.10;78.40;;;;;;5054457;28;20028;-53
2022/10/07 12:44:51;;;;;;;5.72;1.75;;;17.10;78.80;;;;;;5054536;28;20128;-55
2022/10/07 12:47:28;;;;;;;6.72;1.30;;;17.10;78.10;;;;;;5053820;28;20100;-60
2022/10/07 12:50:03;;;;;;;4.22;1.20;;;17.10;78.50;;;;;;5054559;28;20031;-53
2022/10/07 12:52:43;;;;;;;3.40;1.33;;;17.10;78.90;;;;;;5054076;28;20029;-60
2022/10/07 12:55:18;;;;;;;6.97;1.50;;;17.10;79.10;;;;;;5052993;28;20029;-59
2022/10/07 12:57:50;;;;;;;4.90;1.25;;;17.10;78.60;;;;;;5054381;28;20025;-55
2022/10/07 13:00:21;;;;;;;3.60;1.20;;;17.10;79.00;;;;;;5053648;28;20154;-53
2022/10/07 13:02:52;;;;;;;4.45;1.25;;;17.20;79.50;;;;;;5053865;28;20498;-59
2022/10/07 13:05:48;;;;;;;5.07;1.38;;;17.20;79.10;;;;;;5053879;28;20361;-56
2022/10/07 13:09:01;;;;;;;7.80;1.55;;;17.20;78.80;;;;;;5053637;28;20410;-56
2022/10/07 13:11:42;;;;;;;8.43;2.13;;;17.30;78.80;;;;;;5054011;28;20029;-57
2022/10/07 13:14:24;;;;;;;6.13;1.08;;;17.30;78.20;;;;;;5053079;28;20036;-58
2022/10/07 13:17:05;;;;;;;4.22;1.35;;;17.30;77.80;;;;;;5053713;28;20017;-57
2022/10/07 13:19:44;;;;;;;5.00;1.10;;;17.30;77.00;;;;;;5053458;28;20044;-56
2022/10/07 13:22:10;;;;;;;2.83;1.02;;;17.30;77.00;;;;;;5053148;28;20094;-59
2022/10/07 13:24:39;;;;;;;7.97;1.30;;;17.40;76.80;;;;;;5053402;28;20548;-61